createdAt,value
2019-05-30T00:02:29.821Z,6.73
2019-05-30T00:06:34.715Z,6.97
2019-05-30T00:10:37.743Z,9.80
2019-05-30T00:14:40.765Z,9.50
2019-05-30T00:18:43.789Z,10.97
2019-05-30T00:22:46.805Z,6.70
2019-05-30T00:26:49.948Z,6.17
2019-05-30T00:30:53.016Z,7.23
2019-05-30T00:34:56.031Z,7.70
2019-05-30T00:38:59.759Z,7.57
2019-05-30T00:43:04.104Z,7.77
2019-05-30T00:47:07.409Z,6.73
2019-05-30T00:51:10.415Z,6.97
2019-05-30T00:55:13.674Z,7.40
2019-05-30T00:59:16.695Z,8.07
2019-05-30T01:03:19.709Z,7.30
2019-05-30T01:07:23.799Z,9.80
2019-05-30T01:11:26.817Z,9.40
2019-05-30T01:15:29.840Z,8.43
2019-05-30T01:19:32.848Z,8.47
2019-05-30T01:23:37.918Z,7.40
2019-05-30T01:27:41.019Z,7.63
2019-05-30T01:31:44.020Z,8.10
2019-05-30T01:35:47.049Z,8.87
2019-05-30T01:39:50.349Z,8.50
2019-05-30T01:43:53.449Z,8.17
2019-05-30T01:47:56.505Z,8.40
2019-05-30T01:52:00.339Z,8.77
2019-05-30T01:56:04.740Z,8.70
2019-05-30T02:00:20.022Z,9.13
2019-05-30T02:04:15.699Z,9.57
2019-05-30T02:08:19.947Z,9.43
2019-05-30T02:12:22.943Z,10.43
2019-05-30T02:16:25.957Z,7.87
2019-05-30T02:20:28.947Z,7.30
2019-05-30T02:24:31.947Z,6.37
2019-05-30T02:28:34.947Z,6.33
2019-05-30T02:32:38.156Z,8.57
2019-05-30T02:36:41.178Z,7.23
2019-05-30T02:40:44.191Z,8.30
2019-05-30T02:44:47.565Z,7.90
2019-05-30T02:48:58.675Z,7.20
2019-05-30T02:52:55.486Z,7.20
2019-05-30T02:56:58.505Z,8.03
2019-05-30T03:01:02.305Z,7.80
2019-05-30T03:05:10.842Z,7.90
2019-05-30T03:09:13.182Z,8.43
2019-05-30T03:13:16.334Z,10.53
2019-05-30T03:17:19.340Z,8.57
2019-05-30T03:21:22.390Z,8.53
2019-05-30T03:25:25.403Z,9.80
2019-05-30T03:29:28.408Z,9.00
2019-05-30T03:33:41.011Z,9.50
2019-05-30T03:37:36.340Z,9.63
2019-05-30T03:41:39.773Z,8.93
2019-05-30T03:45:42.815Z,9.73
2019-05-30T03:49:48.625Z,9.20
2019-05-30T03:53:52.666Z,9.50
2019-05-30T03:58:05.657Z,8.10
2019-05-30T04:02:11.743Z,9.07
2019-05-30T04:06:21.791Z,8.93
2019-05-30T04:10:30.106Z,9.13
2019-05-30T04:14:36.929Z,9.60
2019-05-30T04:18:40.060Z,8.57
2019-05-30T04:22:43.130Z,9.03
2019-05-30T04:26:45.150Z,8.10
2019-05-30T04:30:46.202Z,8.70
2019-05-30T04:34:47.232Z,8.30
2019-05-30T04:38:48.469Z,7.83
2019-05-30T04:42:51.592Z,8.20
2019-05-30T04:46:54.623Z,8.53
2019-05-30T04:50:57.727Z,8.07
2019-05-30T04:55:00.744Z,7.80
2019-05-30T04:59:03.797Z,8.37
2019-05-30T05:03:07.011Z,7.70
2019-05-30T05:07:11.453Z,8.70
2019-05-30T05:11:20.731Z,8.87
2019-05-30T05:15:22.786Z,8.07
2019-05-30T05:19:26.629Z,8.00
2019-05-30T05:23:30.000Z,7.70
2019-05-30T05:27:33.012Z,7.53
2019-05-30T05:31:36.054Z,7.83
2019-05-30T05:35:39.064Z,7.73
2019-05-30T05:39:42.081Z,6.17
2019-05-30T05:43:45.092Z,6.30
2019-05-30T05:47:48.100Z,6.00
2019-05-30T05:51:51.112Z,6.10
2019-05-30T05:55:54.387Z,6.40
2019-05-30T05:59:57.398Z,6.60
2019-05-30T06:04:12.513Z,5.70
2019-05-30T06:08:05.312Z,6.33
2019-05-30T06:12:08.962Z,5.77
2019-05-30T06:16:11.967Z,6.87
2019-05-30T06:20:13.406Z,7.40
2019-05-30T06:24:14.416Z,7.40
2019-05-30T06:28:15.464Z,7.93
2019-05-30T06:32:16.469Z,7.10
2019-05-30T06:36:19.541Z,3.80
2019-05-30T06:40:23.723Z,6.33
2019-05-30T06:44:28.041Z,6.60
2019-05-30T06:48:29.242Z,6.70
2019-05-30T06:52:32.279Z,6.23
2019-05-30T06:56:35.268Z,7.13
2019-05-30T07:00:36.265Z,7.70
2019-05-30T07:04:50.942Z,6.27
2019-05-30T07:08:40.240Z,5.60
2019-05-30T07:12:42.564Z,6.73
2019-05-30T07:16:45.568Z,6.20
2019-05-30T07:20:48.575Z,6.27
2019-05-30T07:24:49.577Z,6.37
2019-05-30T07:28:52.588Z,5.80
2019-05-30T07:32:53.629Z,4.50
2019-05-30T07:36:54.658Z,5.30
2019-05-30T07:40:55.667Z,5.30
2019-05-30T07:44:56.796Z,5.13
2019-05-30T07:48:57.819Z,6.57
2019-05-30T07:53:01.230Z,5.53
2019-05-30T07:57:02.548Z,4.30
2019-05-30T08:01:03.552Z,4.43
2019-05-30T08:05:20.748Z,5.07
2019-05-30T08:09:08.717Z,5.60
2019-05-30T08:13:10.887Z,5.10
2019-05-30T08:17:11.903Z,6.00
2019-05-30T08:21:14.909Z,4.97
2019-05-30T08:25:16.107Z,5.20
2019-05-30T08:29:17.113Z,4.93
2019-05-30T08:33:21.404Z,4.80
2019-05-30T08:37:21.094Z,5.10
2019-05-30T08:41:24.201Z,5.20
2019-05-30T08:45:25.794Z,3.97
2019-05-30T08:49:29.897Z,4.47
2019-05-30T08:53:32.610Z,5.07
2019-05-30T08:57:36.668Z,4.33
2019-05-30T09:01:37.835Z,5.10
2019-05-30T09:05:56.553Z,5.30
2019-05-30T09:09:42.266Z,6.03
2019-05-30T09:13:46.613Z,4.50
2019-05-30T09:17:47.847Z,4.00
2019-05-30T09:21:50.879Z,5.40
2019-05-30T09:25:52.215Z,3.87
2019-05-30T09:29:53.228Z,6.00
2019-05-30T09:33:54.236Z,5.33
2019-05-30T09:37:55.443Z,5.43
2019-05-30T09:41:56.458Z,5.20
2019-05-30T09:45:57.510Z,4.10
2019-05-30T09:49:58.540Z,5.37
2019-05-30T09:54:01.696Z,4.63
2019-05-30T09:58:04.720Z,3.67
2019-05-30T10:02:05.932Z,3.50
2019-05-30T10:06:09.032Z,4.20
2019-05-30T10:10:11.622Z,3.90
2019-05-30T10:14:13.819Z,7.40
2019-05-30T10:18:14.840Z,5.83
2019-05-30T10:22:15.889Z,6.63
2019-05-30T10:26:16.904Z,7.30
2019-05-30T10:30:23.286Z,5.60
2019-05-30T10:34:26.319Z,11.20
2019-05-30T10:42:37.488Z,10.43
2019-05-30T10:46:38.792Z,7.40
2019-05-30T10:50:41.886Z,7.30
2019-05-30T10:54:46.343Z,8.77
2019-05-30T10:58:50.762Z,5.63
2019-05-30T11:02:54.986Z,4.30
2019-05-30T11:07:11.419Z,4.10
2019-05-30T11:11:09.795Z,4.93
2019-05-30T11:15:13.104Z,4.70
2019-05-30T11:19:16.109Z,12.60
2019-05-30T11:23:19.193Z,4.10
2019-05-30T11:27:22.399Z,5.90
2019-05-30T11:31:25.500Z,6.20
2019-05-30T11:35:30.132Z,3.43
2019-05-30T11:39:33.230Z,4.03
2019-05-30T11:43:36.761Z,13.93
2019-05-30T11:47:40.676Z,4.20
2019-05-30T11:51:43.756Z,4.20
2019-05-30T11:55:46.905Z,2.90
2019-05-30T11:59:50.138Z,2.37
2019-05-30T12:03:54.356Z,2.73
2019-05-30T12:07:58.837Z,3.37
2019-05-30T12:12:01.996Z,3.60
2019-05-30T12:16:05.008Z,4.93
2019-05-30T12:20:08.547Z,4.00
2019-05-30T12:24:11.548Z,3.23
2019-05-30T12:28:14.648Z,2.50
2019-05-30T12:32:17.653Z,3.10
2019-05-30T12:36:20.734Z,3.70
2019-05-30T12:40:24.849Z,3.33
2019-05-30T12:44:27.893Z,2.80
2019-05-30T12:48:31.194Z,3.00
2019-05-30T12:52:34.373Z,2.70
2019-05-30T12:56:37.458Z,2.43
2019-05-30T13:00:41.368Z,2.10
2019-05-30T13:04:44.467Z,6.20
2019-05-30T13:08:47.478Z,4.67
2019-05-30T13:12:50.489Z,2.10
2019-05-30T13:16:53.506Z,1.80
2019-05-30T13:20:57.755Z,1.90
2019-05-30T13:25:01.905Z,1.73
2019-05-30T13:29:06.380Z,1.87
2019-05-30T13:33:09.547Z,1.63
2019-05-30T13:37:12.554Z,1.50
2019-05-30T13:41:15.560Z,2.13
2019-05-30T13:45:19.320Z,1.90
2019-05-30T13:49:23.615Z,2.00
2019-05-30T13:53:26.621Z,1.47
2019-05-30T13:57:29.645Z,1.30
2019-05-30T14:01:32.654Z,1.67
2019-05-30T14:05:35.660Z,1.80
2019-05-30T14:09:38.791Z,1.40
2019-05-30T14:13:41.892Z,1.57
2019-05-30T14:17:44.912Z,1.80
2019-05-30T14:21:48.070Z,1.67
2019-05-30T14:25:51.071Z,1.60
2019-05-30T14:29:54.171Z,1.90
2019-05-30T14:33:57.269Z,1.40
2019-05-30T14:38:00.282Z,1.80
2019-05-30T14:42:03.296Z,3.07
2019-05-30T14:46:06.366Z,1.93
2019-05-30T14:50:11.047Z,1.70
2019-05-30T14:54:14.298Z,2.20
2019-05-30T14:58:17.829Z,2.47
2019-05-30T15:02:20.984Z,2.10
2019-05-30T15:06:24.002Z,1.90
2019-05-30T15:10:27.001Z,1.80
2019-05-30T15:14:30.054Z,1.97
2019-05-30T15:18:33.131Z,1.90
2019-05-30T15:22:36.146Z,2.23
2019-05-30T15:26:39.161Z,2.30
2019-05-30T15:30:42.227Z,1.83
2019-05-30T15:34:45.252Z,1.87
2019-05-30T15:38:48.255Z,1.87
2019-05-30T15:42:53.185Z,1.60
2019-05-30T15:46:56.600Z,2.27
2019-05-30T15:51:00.187Z,1.97
2019-05-30T15:55:05.197Z,2.10
2019-05-30T15:59:09.480Z,2.10
2019-05-30T16:03:12.683Z,2.40
2019-05-30T16:07:16.704Z,2.40
2019-05-30T16:11:19.840Z,2.63
2019-05-30T16:15:22.860Z,2.70
2019-05-30T16:19:26.558Z,2.57
2019-05-30T16:23:29.656Z,3.10
2019-05-30T16:27:32.699Z,3.10
2019-05-30T16:31:37.451Z,2.43
2019-05-30T16:35:40.566Z,3.13
2019-05-30T16:39:43.703Z,3.47
2019-05-30T16:43:46.791Z,3.53
2019-05-30T16:47:50.036Z,2.50
2019-05-30T16:51:54.058Z,2.73
2019-05-30T16:55:57.090Z,2.50
2019-05-30T17:00:00.099Z,2.80
2019-05-30T17:04:03.404Z,2.73
2019-05-30T17:08:06.494Z,2.43
2019-05-30T17:12:09.503Z,2.37
2019-05-30T17:16:12.516Z,2.80
2019-05-30T17:20:16.427Z,3.30
2019-05-30T17:24:20.909Z,3.20
2019-05-30T17:28:24.420Z,3.23
2019-05-30T17:32:28.010Z,2.57
2019-05-30T17:36:31.171Z,2.67
2019-05-30T17:40:43.679Z,2.67
2019-05-30T17:44:39.209Z,2.63
2019-05-30T17:48:42.286Z,2.80
2019-05-30T17:52:45.807Z,2.70
2019-05-30T17:56:48.920Z,2.20
2019-05-30T18:00:52.047Z,2.30
2019-05-30T18:04:56.219Z,2.80
2019-05-30T18:08:59.323Z,2.30
2019-05-30T18:13:02.467Z,2.83
2019-05-30T18:17:05.460Z,2.57
2019-05-30T18:21:08.468Z,3.20
2019-05-30T18:25:13.276Z,2.67
2019-05-30T18:29:18.950Z,2.87
2019-05-30T18:33:22.133Z,2.70
2019-05-30T18:37:26.233Z,2.47
2019-05-30T18:41:29.371Z,2.63
2019-05-30T18:45:38.259Z,2.83
2019-05-30T18:49:42.064Z,2.90
2019-05-30T18:53:45.970Z,2.70
2019-05-30T18:57:49.066Z,2.67
2019-05-30T19:01:52.135Z,2.80
2019-05-30T19:05:55.141Z,2.97
2019-05-30T19:09:58.152Z,3.50
2019-05-30T19:14:02.038Z,2.80
2019-05-30T19:18:08.427Z,2.70
2019-05-30T19:22:10.079Z,3.67
2019-05-30T19:26:13.196Z,3.70
2019-05-30T19:30:16.600Z,3.00
2019-05-30T19:34:19.629Z,3.23
2019-05-30T19:38:23.243Z,3.80
2019-05-30T19:42:27.209Z,4.13
2019-05-30T19:46:30.333Z,3.63
2019-05-30T19:50:34.670Z,3.57
2019-05-30T19:54:39.230Z,3.80
2019-05-30T19:58:42.210Z,3.47
2019-05-30T20:02:45.288Z,3.60
2019-05-30T20:06:48.402Z,3.63
2019-05-30T20:10:51.401Z,4.37
2019-05-30T20:14:54.501Z,4.03
2019-05-30T20:18:57.595Z,4.10
2019-05-30T20:23:00.707Z,3.80
2019-05-30T20:27:03.712Z,3.73
2019-05-30T20:31:06.716Z,3.87
2019-05-30T20:35:11.292Z,4.40
2019-05-30T20:39:14.361Z,3.97
2019-05-30T20:43:17.530Z,3.63
2019-05-30T20:47:20.623Z,3.80
2019-05-30T20:51:24.279Z,4.47
2019-05-30T20:55:28.223Z,4.07
2019-05-30T20:59:31.236Z,4.00
2019-05-30T21:03:35.521Z,4.37
2019-05-30T21:07:39.898Z,4.60
2019-05-30T21:11:44.472Z,4.30
2019-05-30T21:15:47.987Z,4.37
2019-05-30T21:19:51.030Z,3.97
2019-05-30T21:23:54.160Z,4.63
2019-05-30T21:27:57.193Z,4.63
2019-05-30T21:32:00.360Z,4.50
2019-05-30T21:36:03.566Z,4.70
2019-05-30T21:40:06.890Z,4.83
2019-05-30T21:44:10.068Z,6.00
2019-05-30T21:48:13.093Z,4.70
2019-05-30T21:52:16.156Z,4.13
2019-05-30T21:56:20.191Z,4.93
2019-05-30T22:00:44.970Z,5.23
2019-05-30T22:04:48.652Z,4.60
2019-05-30T22:08:51.837Z,4.70
2019-05-30T22:13:08.835Z,5.17
2019-05-30T22:16:59.776Z,5.43
2019-05-30T22:21:04.213Z,6.00
2019-05-30T22:25:07.704Z,5.70
2019-05-30T22:29:10.711Z,5.00
2019-05-30T22:33:13.737Z,5.03
2019-05-30T22:37:16.810Z,5.03
2019-05-30T22:41:19.811Z,4.77
2019-05-30T22:45:22.817Z,5.10
2019-05-30T22:49:25.845Z,5.40
2019-05-30T22:53:29.466Z,5.00
2019-05-30T22:57:32.944Z,5.40
2019-05-30T23:01:36.035Z,5.23
2019-05-30T23:05:39.032Z,5.40
2019-05-30T23:09:42.044Z,5.03
2019-05-30T23:13:45.711Z,5.17
2019-05-30T23:17:48.940Z,5.70
2019-05-30T23:21:53.236Z,5.00
2019-05-30T23:25:57.358Z,5.10
2019-05-30T23:30:00.471Z,4.83
2019-05-30T23:34:03.582Z,5.57
2019-05-30T23:38:06.588Z,4.60
2019-05-30T23:42:09.673Z,4.83
2019-05-30T23:46:12.673Z,4.70
2019-05-30T23:50:16.868Z,4.60
2019-05-30T23:54:19.939Z,4.80
2019-05-30T23:58:24.055Z,4.80
